sensor_id;sensor_type;location;lat;lon;timestamp;temperature;humidity
48988;DHT22;34799;51.440;-2.534;2024-03-07T00:00:43;6.50;99.90
48988;DHT22;34799;51.440;-2.534;2024-03-07T00:03:11;6.70;99.90
48988;DHT22;34799;51.440;-2.534;2024-03-07T00:05:39;6.60;99.90
48988;DHT22;34799;51.440;-2.534;2024-03-07T00:08:06;6.70;99.90
48988;DHT22;34799;51.440;-2.534;2024-03-07T00:10:34;6.80;99.90
48988;DHT22;34799;51.440;-2.534;2024-03-07T00:17:59;6.70;99.90
48988;DHT22;34799;51.440;-2.534;2024-03-07T00:20:28;6.70;99.90
48988;DHT22;34799;51.440;-2.534;2024-03-07T00:22:56;6.70;99.90
48988;DHT22;34799;51.440;-2.534;2024-03-07T00:25:23;6.90;99.90
48988;DHT22;34799;51.440;-2.534;2024-03-07T00:27:50;6.80;99.90
48988;DHT22;34799;51.440;-2.534;2024-03-07T00:30:19;6.80;99.90
48988;DHT22;34799;51.440;-2.534;2024-03-07T00:32:47;7.10;99.90
48988;DHT22;34799;51.440;-2.534;2024-03-07T00:35:15;7.00;99.90
48988;DHT22;34799;51.440;-2.534;2024-03-07T00:37:42;6.90;99.90
48988;DHT22;34799;51.440;-2.534;2024-03-07T00:40:09;7.00;99.90
48988;DHT22;34799;51.440;-2.534;2024-03-07T00:42:38;7.00;99.90
48988;DHT22;34799;51.440;-2.534;2024-03-07T00:45:05;7.10;99.90
48988;DHT22;34799;51.440;-2.534;2024-03-07T00:47:33;6.80;99.90
48988;DHT22;34799;51.440;-2.534;2024-03-07T00:50:00;6.90;99.90
48988;DHT22;34799;51.440;-2.534;2024-03-07T00:52:29;7.10;99.90
48988;DHT22;34799;51.440;-2.534;2024-03-07T00:54:56;7.10;99.90
48988;DHT22;34799;51.440;-2.534;2024-03-07T00:59:50;7.00;99.90
48988;DHT22;34799;51.440;-2.534;2024-03-07T01:02:18;7.20;99.90
48988;DHT22;34799;51.440;-2.534;2024-03-07T01:04:46;7.00;99.90
48988;DHT22;34799;51.440;-2.534;2024-03-07T01:07:13;7.20;99.90
48988;DHT22;34799;51.440;-2.534;2024-03-07T01:09:40;7.30;99.90
48988;DHT22;34799;51.440;-2.534;2024-03-07T01:12:08;7.00;99.90
48988;DHT22;34799;51.440;-2.534;2024-03-07T01:14:38;7.10;99.90
48988;DHT22;34799;51.440;-2.534;2024-03-07T01:17:05;7.10;99.90
48988;DHT22;34799;51.440;-2.534;2024-03-07T01:19:34;7.20;99.90
48988;DHT22;34799;51.440;-2.534;2024-03-07T01:22:02;7.10;99.90
48988;DHT22;34799;51.440;-2.534;2024-03-07T01:24:29;7.30;99.90
48988;DHT22;34799;51.440;-2.534;2024-03-07T01:26:57;7.00;99.90
48988;DHT22;34799;51.440;-2.534;2024-03-07T01:29:24;6.90;99.90
48988;DHT22;34799;51.440;-2.534;2024-03-07T01:31:51;7.00;99.90
48988;DHT22;34799;51.440;-2.534;2024-03-07T01:34:18;7.20;99.90
48988;DHT22;34799;51.440;-2.534;2024-03-07T01:36:46;7.00;99.90
48988;DHT22;34799;51.440;-2.534;2024-03-07T01:39:13;7.00;99.90
48988;DHT22;34799;51.440;-2.534;2024-03-07T01:41:41;7.00;99.90
48988;DHT22;34799;51.440;-2.534;2024-03-07T01:44:08;7.10;99.90
48988;DHT22;34799;51.440;-2.534;2024-03-07T01:46:36;7.50;99.90
48988;DHT22;34799;51.440;-2.534;2024-03-07T01:49:03;6.90;99.90
48988;DHT22;34799;51.440;-2.534;2024-03-07T01:51:30;8.50;99.90
48988;DHT22;34799;51.440;-2.534;2024-03-07T01:53:57;7.10;99.90
48988;DHT22;34799;51.440;-2.534;2024-03-07T01:56:26;7.80;99.90
48988;DHT22;34799;51.440;-2.534;2024-03-07T01:58:53;6.90;99.90
48988;DHT22;34799;51.440;-2.534;2024-03-07T02:01:22;7.70;99.90
48988;DHT22;34799;51.440;-2.534;2024-03-07T02:03:49;7.00;99.90
48988;DHT22;34799;51.440;-2.534;2024-03-07T02:06:16;7.20;99.90
48988;DHT22;34799;51.440;-2.534;2024-03-07T02:08:45;9.70;99.90
48988;DHT22;34799;51.440;-2.534;2024-03-07T02:11:12;7.20;99.90
48988;DHT22;34799;51.440;-2.534;2024-03-07T02:13:40;7.10;99.90
48988;DHT22;34799;51.440;-2.534;2024-03-07T02:16:07;7.20;99.90
48988;DHT22;34799;51.440;-2.534;2024-03-07T02:18:36;7.20;99.90
48988;DHT22;34799;51.440;-2.534;2024-03-07T02:21:08;7.00;99.90
48988;DHT22;34799;51.440;-2.534;2024-03-07T02:23:38;6.80;99.90
48988;DHT22;34799;51.440;-2.534;2024-03-07T02:26:05;6.90;99.90
48988;DHT22;34799;51.440;-2.534;2024-03-07T02:28:34;6.90;99.90
48988;DHT22;34799;51.440;-2.534;2024-03-07T02:31:03;6.60;99.90
48988;DHT22;34799;51.440;-2.534;2024-03-07T02:33:30;6.70;99.90
48988;DHT22;34799;51.440;-2.534;2024-03-07T02:35:59;6.60;99.90
48988;DHT22;34799;51.440;-2.534;2024-03-07T02:38:27;6.70;99.90
48988;DHT22;34799;51.440;-2.534;2024-03-07T02:40:54;6.60;99.90
48988;DHT22;34799;51.440;-2.534;2024-03-07T02:43:22;6.40;99.90
48988;DHT22;34799;51.440;-2.534;2024-03-07T02:45:49;6.90;99.90
48988;DHT22;34799;51.440;-2.534;2024-03-07T02:48:17;6.60;99.90
48988;DHT22;34799;51.440;-2.534;2024-03-07T02:50:46;6.70;99.90
48988;DHT22;34799;51.440;-2.534;2024-03-07T02:53:13;6.80;99.90
48988;DHT22;34799;51.440;-2.534;2024-03-07T02:58:08;6.80;99.90
48988;DHT22;34799;51.440;-2.534;2024-03-07T03:00:36;6.80;99.90
48988;DHT22;34799;51.440;-2.534;2024-03-07T03:03:03;7.00;99.90
48988;DHT22;34799;51.440;-2.534;2024-03-07T03:05:31;6.80;99.90
48988;DHT22;34799;51.440;-2.534;2024-03-07T03:07:58;6.40;99.90
48988;DHT22;34799;51.440;-2.534;2024-03-07T03:10:27;6.30;99.90
48988;DHT22;34799;51.440;-2.534;2024-03-07T03:12:56;6.20;99.90
48988;DHT22;34799;51.440;-2.534;2024-03-07T03:17:54;6.50;99.90
48988;DHT22;34799;51.440;-2.534;2024-03-07T03:22:53;6.50;99.90
48988;DHT22;34799;51.440;-2.534;2024-03-07T03:25:29;6.40;99.90
48988;DHT22;34799;51.440;-2.534;2024-03-07T03:30:24;6.50;99.90
48988;DHT22;34799;51.440;-2.534;2024-03-07T03:32:52;6.40;99.90
48988;DHT22;34799;51.440;-2.534;2024-03-07T03:35:20;6.40;99.90
48988;DHT22;34799;51.440;-2.534;2024-03-07T03:37:48;6.40;99.90
48988;DHT22;34799;51.440;-2.534;2024-03-07T03:40:15;6.30;99.90
48988;DHT22;34799;51.440;-2.534;2024-03-07T03:42:42;6.30;99.90
48988;DHT22;34799;51.440;-2.534;2024-03-07T03:45:10;6.40;99.90
48988;DHT22;34799;51.440;-2.534;2024-03-07T03:47:42;6.30;99.90
48988;DHT22;34799;51.440;-2.534;2024-03-07T03:50:12;6.40;99.90
48988;DHT22;34799;51.440;-2.534;2024-03-07T03:55:11;6.40;99.90
48988;DHT22;34799;51.440;-2.534;2024-03-07T03:57:44;6.20;99.90
48988;DHT22;34799;51.440;-2.534;2024-03-07T04:00:14;6.20;99.90
48988;DHT22;34799;51.440;-2.534;2024-03-07T04:02:46;6.10;99.90
48988;DHT22;34799;51.440;-2.534;2024-03-07T04:05:19;6.30;99.90
48988;DHT22;34799;51.440;-2.534;2024-03-07T04:07:47;6.00;99.90
48988;DHT22;34799;51.440;-2.534;2024-03-07T04:10:16;6.10;99.90
48988;DHT22;34799;51.440;-2.534;2024-03-07T04:12:45;6.00;99.90
48988;DHT22;34799;51.440;-2.534;2024-03-07T04:15:15;6.20;99.90
48988;DHT22;34799;51.440;-2.534;2024-03-07T04:17:45;6.20;99.90
48988;DHT22;34799;51.440;-2.534;2024-03-07T04:20:14;6.30;99.90
48988;DHT22;34799;51.440;-2.534;2024-03-07T04:22:44;6.10;99.90
48988;DHT22;34799;51.440;-2.534;2024-03-07T04:25:11;6.40;99.90
48988;DHT22;34799;51.440;-2.534;2024-03-07T04:27:39;6.20;99.90
48988;DHT22;34799;51.440;-2.534;2024-03-07T04:30:08;6.20;99.90
48988;DHT22;34799;51.440;-2.534;2024-03-07T04:32:38;6.00;99.90
48988;DHT22;34799;51.440;-2.534;2024-03-07T04:35:07;6.20;99.90
48988;DHT22;34799;51.440;-2.534;2024-03-07T04:37:34;5.90;99.90
48988;DHT22;34799;51.440;-2.534;2024-03-07T04:40:05;6.00;99.90
48988;DHT22;34799;51.440;-2.534;2024-03-07T04:42:47;6.00;99.90
48988;DHT22;34799;51.440;-2.534;2024-03-07T04:45:18;5.80;99.90
48988;DHT22;34799;51.440;-2.534;2024-03-07T04:47:46;6.00;99.90
48988;DHT22;34799;51.440;-2.534;2024-03-07T04:50:14;5.60;99.90
48988;DHT22;34799;51.440;-2.534;2024-03-07T04:52:45;6.00;99.90
48988;DHT22;34799;51.440;-2.534;2024-03-07T04:55:13;5.90;99.90
48988;DHT22;34799;51.440;-2.534;2024-03-07T04:57:41;6.00;99.90
48988;DHT22;34799;51.440;-2.534;2024-03-07T05:00:12;5.80;99.90
48988;DHT22;34799;51.440;-2.534;2024-03-07T05:02:43;5.90;99.90
48988;DHT22;34799;51.440;-2.534;2024-03-07T05:05:11;5.90;99.90
48988;DHT22;34799;51.440;-2.534;2024-03-07T05:07:40;5.50;99.90
48988;DHT22;34799;51.440;-2.534;2024-03-07T05:10:09;5.50;99.90
48988;DHT22;34799;51.440;-2.534;2024-03-07T05:12:36;5.60;99.90
48988;DHT22;34799;51.440;-2.534;2024-03-07T05:15:05;5.40;99.90
48988;DHT22;34799;51.440;-2.534;2024-03-07T05:17:33;5.80;99.90
48988;DHT22;34799;51.440;-2.534;2024-03-07T05:20:02;5.60;99.90
48988;DHT22;34799;51.440;-2.534;2024-03-07T05:22:30;5.70;99.90
48988;DHT22;34799;51.440;-2.534;2024-03-07T05:24:57;5.60;99.90
48988;DHT22;34799;51.440;-2.534;2024-03-07T05:27:25;5.30;99.90
48988;DHT22;34799;51.440;-2.534;2024-03-07T05:29:54;5.30;99.90
48988;DHT22;34799;51.440;-2.534;2024-03-07T05:32:24;5.40;99.90
48988;DHT22;34799;51.440;-2.534;2024-03-07T05:34:53;5.20;99.90
48988;DHT22;34799;51.440;-2.534;2024-03-07T05:37:20;5.50;99.90
48988;DHT22;34799;51.440;-2.534;2024-03-07T05:39:49;4.80;99.90
48988;DHT22;34799;51.440;-2.534;2024-03-07T05:42:18;4.70;99.90
48988;DHT22;34799;51.440;-2.534;2024-03-07T05:44:45;4.70;99.90
48988;DHT22;34799;51.440;-2.534;2024-03-07T05:47:13;4.60;99.90
48988;DHT22;34799;51.440;-2.534;2024-03-07T05:49:41;4.50;99.90
48988;DHT22;34799;51.440;-2.534;2024-03-07T05:52:09;4.70;99.90
48988;DHT22;34799;51.440;-2.534;2024-03-07T05:54:37;4.50;99.90
48988;DHT22;34799;51.440;-2.534;2024-03-07T05:57:04;4.70;99.90
48988;DHT22;34799;51.440;-2.534;2024-03-07T05:59:34;4.70;99.90
48988;DHT22;34799;51.440;-2.534;2024-03-07T06:02:01;4.70;99.90
48988;DHT22;34799;51.440;-2.534;2024-03-07T06:04:30;4.50;99.90
48988;DHT22;34799;51.440;-2.534;2024-03-07T06:07:00;6.30;99.90
48988;DHT22;34799;51.440;-2.534;2024-03-07T06:09:27;4.60;99.90
48988;DHT22;34799;51.440;-2.534;2024-03-07T06:14:22;4.50;99.90
48988;DHT22;34799;51.440;-2.534;2024-03-07T06:19:21;4.60;99.90
48988;DHT22;34799;51.440;-2.534;2024-03-07T06:21:49;4.40;99.90
48988;DHT22;34799;51.440;-2.534;2024-03-07T06:24:16;4.50;99.90
48988;DHT22;34799;51.440;-2.534;2024-03-07T06:26:45;4.30;99.90
48988;DHT22;34799;51.440;-2.534;2024-03-07T06:29:16;4.30;99.90
48988;DHT22;34799;51.440;-2.534;2024-03-07T06:31:45;4.30;99.90
48988;DHT22;34799;51.440;-2.534;2024-03-07T06:34:16;4.10;99.90
48988;DHT22;34799;51.440;-2.534;2024-03-07T06:36:45;4.30;99.90
48988;DHT22;34799;51.440;-2.534;2024-03-07T06:39:12;4.30;99.90
48988;DHT22;34799;51.440;-2.534;2024-03-07T06:41:39;4.30;99.90
48988;DHT22;34799;51.440;-2.534;2024-03-07T06:44:08;4.30;99.90
48988;DHT22;34799;51.440;-2.534;2024-03-07T06:46:37;4.20;99.90
48988;DHT22;34799;51.440;-2.534;2024-03-07T06:49:05;4.00;99.90
48988;DHT22;34799;51.440;-2.534;2024-03-07T06:51:37;4.20;99.90
48988;DHT22;34799;51.440;-2.534;2024-03-07T06:54:06;4.40;99.90
48988;DHT22;34799;51.440;-2.534;2024-03-07T06:56:34;4.40;99.90
48988;DHT22;34799;51.440;-2.534;2024-03-07T06:59:02;4.20;99.90
48988;DHT22;34799;51.440;-2.534;2024-03-07T07:01:32;4.60;99.90
48988;DHT22;34799;51.440;-2.534;2024-03-07T07:04:00;4.50;99.90
48988;DHT22;34799;51.440;-2.534;2024-03-07T07:06:30;4.50;99.90
48988;DHT22;34799;51.440;-2.534;2024-03-07T07:11:26;4.50;99.90
48988;DHT22;34799;51.440;-2.534;2024-03-07T07:13:56;4.70;99.90
48988;DHT22;34799;51.440;-2.534;2024-03-07T07:16:23;4.80;99.90
48988;DHT22;34799;51.440;-2.534;2024-03-07T07:21:19;4.70;99.90
48988;DHT22;34799;51.440;-2.534;2024-03-07T07:23:47;4.80;99.90
48988;DHT22;34799;51.440;-2.534;2024-03-07T07:26:14;5.00;99.90
48988;DHT22;34799;51.440;-2.534;2024-03-07T07:28:42;4.90;99.90
48988;DHT22;34799;51.440;-2.534;2024-03-07T07:33:37;5.30;99.90
48988;DHT22;34799;51.440;-2.534;2024-03-07T07:36:05;5.20;99.90
48988;DHT22;34799;51.440;-2.534;2024-03-07T07:38:32;5.30;99.90
48988;DHT22;34799;51.440;-2.534;2024-03-07T07:41:01;5.60;99.90
48988;DHT22;34799;51.440;-2.534;2024-03-07T07:43:28;5.40;99.90
48988;DHT22;34799;51.440;-2.534;2024-03-07T07:46:00;5.40;99.90
48988;DHT22;34799;51.440;-2.534;2024-03-07T07:50:55;5.50;99.90
48988;DHT22;34799;51.440;-2.534;2024-03-07T07:53:22;5.60;99.90
48988;DHT22;34799;51.440;-2.534;2024-03-07T07:55:50;5.60;99.90
48988;DHT22;34799;51.440;-2.534;2024-03-07T07:58:18;5.60;99.90
48988;DHT22;34799;51.440;-2.534;2024-03-07T08:00:45;5.60;99.90
48988;DHT22;34799;51.440;-2.534;2024-03-07T08:03:12;5.80;99.90
48988;DHT22;34799;51.440;-2.534;2024-03-07T08:05:42;5.70;99.90
48988;DHT22;34799;51.440;-2.534;2024-03-07T08:08:18;6.00;99.90
48988;DHT22;34799;51.440;-2.534;2024-03-07T08:10:48;5.80;99.90
48988;DHT22;34799;51.440;-2.534;2024-03-07T08:15:43;6.20;99.90
48988;DHT22;34799;51.440;-2.534;2024-03-07T08:20:39;5.90;99.90
48988;DHT22;34799;51.440;-2.534;2024-03-07T08:23:06;9.30;99.90
48988;DHT22;34799;51.440;-2.534;2024-03-07T08:25:33;6.20;99.90
48988;DHT22;34799;51.440;-2.534;2024-03-07T08:28:00;6.00;99.90
48988;DHT22;34799;51.440;-2.534;2024-03-07T08:32:56;6.20;99.90
48988;DHT22;34799;51.440;-2.534;2024-03-07T08:37:53;6.10;99.90
48988;DHT22;34799;51.440;-2.534;2024-03-07T08:40:22;6.50;99.90
48988;DHT22;34799;51.440;-2.534;2024-03-07T08:42:53;6.40;99.90
48988;DHT22;34799;51.440;-2.534;2024-03-07T08:45:23;6.50;99.90
48988;DHT22;34799;51.440;-2.534;2024-03-07T08:47:53;6.50;99.90
48988;DHT22;34799;51.440;-2.534;2024-03-07T08:50:24;6.50;99.90
48988;DHT22;34799;51.440;-2.534;2024-03-07T08:52:53;6.70;99.90
48988;DHT22;34799;51.440;-2.534;2024-03-07T08:55:24;6.90;99.90
48988;DHT22;34799;51.440;-2.534;2024-03-07T09:00:23;6.70;99.90
48988;DHT22;34799;51.440;-2.534;2024-03-07T09:02:58;6.80;99.90
48988;DHT22;34799;51.440;-2.534;2024-03-07T09:05:27;6.90;99.90
48988;DHT22;34799;51.440;-2.534;2024-03-07T09:10:23;7.00;99.90
48988;DHT22;34799;51.440;-2.534;2024-03-07T09:12:52;6.90;99.90
48988;DHT22;34799;51.440;-2.534;2024-03-07T09:15:21;7.10;99.90
48988;DHT22;34799;51.440;-2.534;2024-03-07T09:17:51;7.10;99.90
48988;DHT22;34799;51.440;-2.534;2024-03-07T09:20:19;7.20;99.90
48988;DHT22;34799;51.440;-2.534;2024-03-07T09:22:47;7.30;99.90
48988;DHT22;34799;51.440;-2.534;2024-03-07T09:25:16;7.30;99.90
48988;DHT22;34799;51.440;-2.534;2024-03-07T09:27:46;7.20;99.90
48988;DHT22;34799;51.440;-2.534;2024-03-07T09:32:45;7.30;99.90
48988;DHT22;34799;51.440;-2.534;2024-03-07T09:35:12;8.10;99.90
48988;DHT22;34799;51.440;-2.534;2024-03-07T09:37:41;8.20;99.90
48988;DHT22;34799;51.440;-2.534;2024-03-07T09:40:10;7.70;99.90
48988;DHT22;34799;51.440;-2.534;2024-03-07T09:42:48;7.50;99.90
48988;DHT22;34799;51.440;-2.534;2024-03-07T09:45:17;7.50;99.90
48988;DHT22;34799;51.440;-2.534;2024-03-07T09:47:47;7.50;99.90
48988;DHT22;34799;51.440;-2.534;2024-03-07T09:50:19;7.70;99.90
48988;DHT22;34799;51.440;-2.534;2024-03-07T09:52:48;7.60;99.90
48988;DHT22;34799;51.440;-2.534;2024-03-07T09:55:19;7.70;99.90
48988;DHT22;34799;51.440;-2.534;2024-03-07T09:57:48;7.90;99.90
48988;DHT22;34799;51.440;-2.534;2024-03-07T10:00:20;7.80;99.90
48988;DHT22;34799;51.440;-2.534;2024-03-07T10:03:01;8.00;99.90
48988;DHT22;34799;51.440;-2.534;2024-03-07T10:05:30;8.00;99.90
48988;DHT22;34799;51.440;-2.534;2024-03-07T10:07:59;8.20;99.90
48988;DHT22;34799;51.440;-2.534;2024-03-07T10:10:26;8.30;99.90
48988;DHT22;34799;51.440;-2.534;2024-03-07T18:30:10;9.20;99.90
48988;DHT22;34799;51.440;-2.534;2024-03-07T18:32:42;9.30;99.90
48988;DHT22;34799;51.440;-2.534;2024-03-07T23:24:40;5.60;99.90
